Time;durP1;ratioP1;P1;durP2;ratioP2;P2;SDS_P1;SDS_P2;PMS_P1;PMS_P2;Temp;Humidity;BMP_temperature;BMP_pressure;BME280_temperature;BME280_humidity;BME280_pressure;Samples;Min_cycle;Max_cycle;Signal;HPM_P1;HPM_P2
2022/02/21 00:01:14;;;;;;;3.40;1.40;;;;;;;1.41;63.20;98438.94;5047479;28;20722;-83
2022/02/21 00:03:40;;;;;;;3.50;1.33;;;;;;;1.40;63.00;98434.66;5050228;28;20039;-82
2022/02/21 00:06:06;;;;;;;2.80;1.35;;;;;;;1.67;63.42;98493.78;5049829;28;20033;-82
2022/02/21 00:08:32;;;;;;;2.35;1.20;;;;;;;1.48;63.49;98465.47;5033806;28;20915;-82
2022/02/21 00:11:01;;;;;;;3.65;1.30;;;;;;;1.50;63.73;98467.19;5039430;28;20048;-81
2022/02/21 00:13:29;;;;;;;2.78;1.45;;;;;;;1.49;63.84;98478.28;5043313;28;20090;-81
2022/02/21 00:15:55;;;;;;;3.35;1.50;;;;;;;1.14;63.55;98424.22;5052478;28;20041;-82
2022/02/21 00:18:22;;;;;;;2.22;1.13;;;;;;;1.38;63.85;98467.13;5036798;28;20029;-81
2022/02/21 00:20:48;;;;;;;1.83;1.08;;;;;;;1.35;63.09;98465.38;5055901;28;20748;-79
2022/02/21 00:23:14;;;;;;;2.80;1.30;;;;;;;1.17;63.70;98443.06;5066950;28;20051;-81
2022/02/21 00:25:40;;;;;;;4.30;1.40;;;;;;;0.94;63.98;98417.25;5037231;28;21071;-82
2022/02/21 00:28:08;;;;;;;4.53;1.30;;;;;;;1.26;64.14;98469.56;4999048;28;20414;-80
2022/02/21 00:30:34;;;;;;;3.58;1.30;;;;;;;1.34;63.56;98481.59;5004151;28;20049;-81
2022/02/21 00:33:00;;;;;;;4.60;1.63;;;;;;;1.23;64.20;98465.31;5023961;28;20068;-82
2022/02/21 00:35:26;;;;;;;2.67;1.25;;;;;;;1.24;64.37;98463.56;5032683;28;20565;-80
2022/02/21 00:37:52;;;;;;;5.28;1.50;;;;;;;0.96;64.47;98415.56;5051740;28;20043;-82
2022/02/21 00:40:18;;;;;;;1.58;1.10;;;;;;;1.21;64.59;98443.91;5049228;28;20060;-82
2022/02/21 00:42:43;;;;;;;2.85;1.30;;;;;;;1.30;64.23;98448.25;5033061;28;20135;-81
2022/02/21 00:45:10;;;;;;;2.35;1.13;;;;;;;1.33;64.30;98456.81;5033733;28;20056;-82
2022/02/21 00:47:38;;;;;;;4.30;1.42;;;;;;;1.46;64.05;98468.00;5032356;28;20482;-81
2022/02/21 00:50:04;;;;;;;4.50;1.75;;;;;;;1.54;64.91;98480.91;5051276;28;20473;-82
2022/02/21 00:52:32;;;;;;;2.53;1.45;;;;;;;1.57;64.18;98480.06;5033072;28;20037;-82
2022/02/21 00:54:57;;;;;;;2.05;1.20;;;;;;;1.57;64.14;98465.50;5051040;28;20032;-81
2022/02/21 00:57:23;;;;;;;3.85;1.75;;;;;;;1.49;64.72;98459.50;5051525;28;20039;-82
2022/02/21 00:59:49;;;;;;;3.50;1.40;;;;;;;1.42;64.39;98448.34;4997725;28;20037;-82
2022/02/21 01:02:15;;;;;;;2.67;1.60;;;;;;;1.47;64.04;98458.63;5013697;28;20045;-80
2022/02/21 01:04:41;;;;;;;3.78;1.40;;;;;;;1.44;64.94;98451.75;5013912;28;20181;-82
2022/02/21 01:07:07;;;;;;;4.47;1.40;;;;;;;1.49;64.25;98455.22;5045366;28;20521;-81
2022/02/21 01:09:33;;;;;;;4.05;1.50;;;;;;;1.49;64.47;98456.94;5020733;28;20167;-81
2022/02/21 01:11:59;;;;;;;3.58;1.42;;;;;;;1.53;64.69;98458.69;5049749;28;20041;-81
2022/02/21 01:14:25;;;;;;;2.63;1.40;;;;;;;1.54;64.28;98451.81;4998163;28;20056;-81
2022/02/21 01:16:51;;;;;;;3.83;1.55;;;;;;;1.60;64.36;98457.00;5031043;28;20032;-83
2022/02/21 01:19:17;;;;;;;4.32;1.63;;;;;;;1.58;64.84;98445.88;5032008;28;20582;-82
2022/02/21 01:21:43;;;;;;;3.83;1.50;;;;;;;1.47;64.30;98436.41;5015418;28;20386;-81
2022/02/21 01:24:09;;;;;;;3.10;1.40;;;;;;;1.52;64.78;98441.56;5040539;28;20047;-80
2022/02/21 01:26:35;;;;;;;3.10;1.60;;;;;;;1.28;65.25;98404.69;5015952;28;20444;-83
2022/02/21 01:29:02;;;;;;;1.45;1.15;;;;;;;1.55;64.88;98448.41;5016975;28;20040;-82
2022/02/21 01:31:29;;;;;;;4.40;1.63;;;;;;;1.49;65.08;98434.69;5033581;28;20041;-81
2022/02/21 01:33:55;;;;;;;1.92;1.23;;;;;;;1.51;64.81;98437.28;5050369;28;20036;-82
2022/02/21 01:36:21;;;;;;;3.25;1.27;;;;;;;1.44;65.43;98427.84;5040478;28;20041;-81
2022/02/21 01:38:46;;;;;;;3.65;1.38;;;;;;;1.33;65.03;98402.97;5050207;28;20080;-80
2022/02/21 01:41:12;;;;;;;4.40;1.40;;;;;;;1.21;64.70;98379.84;5051502;28;20048;-80
2022/02/21 01:43:39;;;;;;;3.42;1.70;;;;;;;1.57;65.02;98439.03;5053467;28;20055;-81
2022/02/21 01:46:05;;;;;;;2.80;1.60;;;;;;;1.60;64.59;98445.03;5020583;28;20065;-81
2022/02/21 01:48:31;;;;;;;2.10;1.60;;;;;;;1.27;64.65;98387.59;5031411;28;20021;-83
2022/02/21 01:50:57;;;;;;;4.07;1.77;;;;;;;1.46;65.01;98414.16;5032073;28;20049;-81
2022/02/21 01:53:23;;;;;;;2.08;1.60;;;;;;;1.32;64.91;98388.47;5047254;28;20048;-83
2022/02/21 01:55:50;;;;;;;3.85;1.55;;;;;;;1.57;65.12;98436.47;5064649;28;20053;-83
2022/02/21 01:58:16;;;;;;;4.07;1.80;;;;;;;1.58;64.30;98433.06;5066221;28;20017;-81
2022/02/21 02:00:42;;;;;;;4.35;1.67;;;;;;;1.57;64.57;98429.59;5045118;28;20069;-81
2022/02/21 02:03:07;;;;;;;7.15;1.90;;;;;;;1.49;65.05;98419.31;5051257;28;20041;-80
2022/02/21 02:05:33;;;;;;;2.85;1.90;;;;;;;1.57;65.13;98429.59;5071478;28;20021;-80
2022/02/21 02:08:00;;;;;;;3.60;1.60;;;;;;;1.43;64.72;98411.63;5050759;28;20049;-83
2022/02/21 02:10:27;;;;;;;4.43;1.90;;;;;;;1.45;64.89;98414.16;5031321;28;20045;-82
2022/02/21 02:12:53;;;;;;;4.60;1.70;;;;;;;1.37;64.77;98400.44;5015822;28;20117;-82
2022/02/21 02:15:19;;;;;;;3.38;1.50;;;;;;;1.08;64.73;98365.25;5031718;28;20237;-81
2022/02/21 02:17:46;;;;;;;3.45;1.73;;;;;;;1.46;65.18;98429.56;5048384;28;20037;-83
2022/02/21 02:20:13;;;;;;;6.45;1.88;;;;;;;1.41;65.49;98431.25;5023893;28;20037;-82
2022/02/21 02:22:40;;;;;;;4.00;1.70;;;;;;;1.30;64.93;98412.38;5031447;28;20037;-80
2022/02/21 02:25:06;;;;;;;2.88;1.60;;;;;;;1.32;65.01;98420.94;5049309;28;20045;-81
2022/02/21 02:27:32;;;;;;;3.00;1.67;;;;;;;1.15;65.08;98406.31;5052171;28;20076;-82
2022/02/21 02:30:01;;;;;;;5.70;2.05;;;;;;;0.98;65.23;98374.59;5051656;28;20457;-80
2022/02/21 02:32:30;;;;;;;3.37;1.60;;;;;;;1.19;65.54;98425.13;5031834;28;20533;-81
2022/02/21 02:34:57;;;;;;;4.22;1.98;;;;;;;1.15;65.41;98426.81;5015087;28;20413;-82
2022/02/21 02:37:24;;;;;;;4.18;1.90;;;;;;;1.06;65.55;98416.47;5030054;28;20048;-82
2022/02/21 02:39:51;;;;;;;6.32;1.63;;;;;;;0.98;65.68;98411.31;5039542;28;20044;-83
2022/02/21 02:42:18;;;;;;;5.32;2.00;;;;;;;0.66;64.90;98359.81;5031027;28;20049;-82
2022/02/21 02:44:44;;;;;;;5.20;1.50;;;;;;;1.00;65.59;98413.84;5031177;28;20040;-81
2022/02/21 02:47:11;;;;;;;4.55;1.52;;;;;;;0.96;65.58;98418.13;5049058;28;20041;-81
2022/02/21 02:49:38;;;;;;;3.58;1.80;;;;;;;0.90;65.91;98408.69;5048555;28;20041;-81
2022/02/21 02:52:05;;;;;;;4.10;2.13;;;;;;;0.45;66.16;98339.16;5049373;28;20374;-81
2022/02/21 02:54:31;;;;;;;3.97;1.83;;;;;;;0.53;65.37;98357.19;5016144;28;20051;-81
2022/02/21 02:56:58;;;;;;;3.83;2.00;;;;;;;0.66;65.74;98390.56;5031516;28;20566;-80
2022/02/21 02:59:25;;;;;;;3.20;1.60;;;;;;;0.66;65.78;98382.88;5031393;28;20116;-80
2022/02/21 03:01:52;;;;;;;4.57;1.98;;;;;;;0.71;65.35;98407.66;5031602;28;20056;-82
2022/02/21 03:04:19;;;;;;;5.10;1.77;;;;;;;0.35;66.25;98355.31;5024901;28;20045;-82
2022/02/21 03:06:45;;;;;;;3.08;1.63;;;;;;;0.45;66.13;98374.16;5053756;28;20043;-82
2022/02/21 03:09:11;;;;;;;4.18;2.00;;;;;;;0.59;66.18;98408.41;5054013;28;20089;-80
2022/02/21 03:11:37;;;;;;;5.82;2.30;;;;;;;0.46;65.91;98391.25;5041226;28;20032;-80
2022/02/21 03:14:03;;;;;;;3.50;1.80;;;;;;;0.54;65.96;98399.84;5036601;28;20064;-81
2022/02/21 03:16:29;;;;;;;6.13;2.00;;;;;;;0.29;66.15;98358.69;5041935;28;20041;-81
2022/02/21 03:18:56;;;;;;;4.00;1.90;;;;;;;0.56;66.89;98399.84;5015749;28;20059;-80
2022/02/21 03:21:22;;;;;;;5.47;1.80;;;;;;;0.41;66.05;98374.97;5030997;28;20041;-80
2022/02/21 03:23:48;;;;;;;3.40;1.70;;;;;;;0.53;66.25;98380.22;5013959;28;20032;-82
2022/02/21 03:26:15;;;;;;;4.47;1.90;;;;;;;0.31;66.18;98355.28;5012593;28;20123;-81
2022/02/21 03:28:41;;;;;;;3.35;1.75;;;;;;;0.57;66.16;98394.75;5048563;28;20048;-82
2022/02/21 03:31:08;;;;;;;3.72;1.80;;;;;;;0.62;66.56;98399.03;5048136;28;20043;-80
2022/02/21 03:33:35;;;;;;;5.45;1.73;;;;;;;0.66;66.57;98403.34;5031020;28;20032;-82
2022/02/21 03:36:00;;;;;;;5.28;1.63;;;;;;;0.69;66.40;98401.66;4993514;28;20046;-82
2022/02/21 03:38:26;;;;;;;6.85;2.08;;;;;;;0.62;67.10;98386.25;5030537;28;20422;-81
2022/02/21 03:40:52;;;;;;;4.57;1.63;;;;;;;0.73;66.79;98394.91;5029655;28;20037;-84
2022/02/21 03:43:18;;;;;;;2.60;1.38;;;;;;;0.80;66.84;98418.84;5029705;28;20418;-81
2022/02/21 03:45:44;;;;;;;2.22;1.55;;;;;;;0.79;66.94;98409.44;5030673;28;20525;-82
2022/02/21 03:48:11;;;;;;;4.32;1.50;;;;;;;0.78;67.03;98410.28;5018910;28;20136;-83
2022/02/21 03:50:36;;;;;;;4.55;1.70;;;;;;;0.77;66.27;98406.00;5046801;28;20189;-82
2022/02/21 03:53:03;;;;;;;3.55;1.60;;;;;;;0.62;66.60;98389.69;5029854;28;20040;-80
2022/02/21 03:55:28;;;;;;;3.35;1.90;;;;;;;0.79;66.58;98394.91;5045069;28;20047;-80
2022/02/21 03:57:54;;;;;;;5.32;1.95;;;;;;;0.77;66.67;98390.63;5047451;28;20540;-80
2022/02/21 04:00:21;;;;;;;5.18;1.90;;;;;;;0.83;67.17;98412.03;5012383;28;20107;-80
2022/02/21 04:02:47;;;;;;;3.92;1.60;;;;;;;0.75;66.91;98375.28;5046988;28;20052;-80
2022/02/21 04:05:14;;;;;;;4.68;1.73;;;;;;;0.96;67.44;98397.63;5029814;28;20032;-78
2022/02/21 04:07:44;;;;;;;4.72;2.38;;;;;;;1.00;66.99;98403.63;5032290;28;20048;-80
2022/02/21 04:10:15;;;;;;;4.57;2.10;;;;;;;1.02;67.46;98409.59;5050596;28;20064;-80
2022/02/21 04:12:42;;;;;;;;;;;;;;;1.05;67.22;98407.06;5048507;28;20032;-82
2022/02/21 04:15:09;;;;;;;4.45;1.95;;;;;;;1.10;66.91;98407.13;5029931;28;20003;-81
2022/02/21 04:17:43;;;;;;;6.35;1.92;;;;;;;1.03;66.66;98388.25;5012011;28;20041;-80
2022/02/21 04:20:12;;;;;;;6.55;1.80;;;;;;;0.99;66.20;98377.16;5047479;28;20386;-80
2022/02/21 04:22:39;;;;;;;6.15;2.10;;;;;;;1.08;66.33;98385.75;5028324;28;20091;-81
2022/02/21 04:25:06;;;;;;;3.13;1.92;;;;;;;1.20;66.67;98407.19;5029450;28;20537;-80
2022/02/21 04:27:59;;;;;;;3.53;2.08;;;;;;;1.22;66.83;98401.19;5020429;28;20121;-80
2022/02/21 04:30:27;;;;;;;5.45;2.03;;;;;;;0.79;66.44;98335.19;5043510;28;20052;-82
2022/02/21 04:32:54;;;;;;;8.18;2.55;;;;;;;1.14;66.46;98402.03;5047462;28;20045;-81
2022/02/21 04:35:22;;;;;;;5.60;2.60;;;;;;;1.13;66.89;98402.00;5054064;28;20100;-83
2022/02/21 04:37:49;;;;;;;4.53;2.03;;;;;;;1.07;66.30;98407.94;5054459;28;20048;-81
2022/02/21 04:40:19;;;;;;;4.50;2.58;;;;;;;0.77;67.06;98365.03;5037146;28;20061;-81
2022/02/21 04:42:53;;;;;;;5.45;2.13;;;;;;;0.91;66.30;98414.66;5029223;28;20129;-81
2022/02/21 04:45:23;;;;;;;5.22;2.33;;;;;;;0.64;66.90;98369.19;5028171;28;20128;-81
2022/02/21 04:47:49;;;;;;;4.65;2.17;;;;;;;0.84;66.58;98387.28;5046770;28;20044;-82
2022/02/21 04:50:15;;;;;;;7.68;2.47;;;;;;;0.71;67.14;98361.56;5028088;28;20046;-80
2022/02/21 04:52:41;;;;;;;6.10;2.00;;;;;;;0.81;66.64;98377.88;5052916;28;20041;-82
2022/02/21 04:55:11;;;;;;;6.45;2.17;;;;;;;0.99;66.49;98407.06;5035370;28;20102;-80
2022/02/21 04:57:37;;;;;;;4.80;2.08;;;;;;;0.64;67.07;98351.28;5032885;28;20041;-81
2022/02/21 05:00:06;;;;;;;2.85;2.00;;;;;;;0.94;67.03;98399.31;5021544;28;20108;-82
2022/02/21 05:02:32;;;;;;;8.05;4.03;;;;;;;0.55;67.27;98341.81;5028002;28;20095;-81
2022/02/21 05:04:58;;;;;;;5.82;2.00;;;;;;;0.80;67.01;98390.69;5028485;28;20453;-82
2022/02/21 05:07:24;;;;;;;5.18;2.17;;;;;;;0.21;67.09;98291.22;5035867;28;20037;-83
2022/02/21 05:09:53;;;;;;;4.07;2.65;;;;;;;0.30;67.13;98305.78;5036909;28;20100;-82
2022/02/21 05:12:18;;;;;;;6.65;2.28;;;;;;;0.56;67.43;98349.50;5034327;28;20090;-84
2022/02/21 05:14:44;;;;;;;6.18;2.28;;;;;;;0.92;67.19;98406.13;5033956;28;20041;-82
2022/02/21 05:17:10;;;;;;;4.28;2.20;;;;;;;0.34;67.17;98320.31;5034621;28;20446;-80
2022/02/21 05:19:36;;;;;;;4.65;2.80;;;;;;;0.46;67.84;98319.56;4998789;28;20101;-83
2022/02/21 05:22:02;;;;;;;7.40;2.60;;;;;;;0.95;67.18;98405.31;5035009;28;20041;-82
2022/02/21 05:24:27;;;;;;;6.25;2.08;;;;;;;0.98;67.88;98401.06;5062052;28;20044;-83
2022/02/21 05:26:56;;;;;;;6.93;2.35;;;;;;;1.02;67.63;98396.78;5052418;28;20087;-83
2022/02/21 05:29:22;;;;;;;5.35;2.13;;;;;;;0.90;67.54;98371.94;5069498;28;20021;-81
2022/02/21 05:31:49;;;;;;;5.82;2.63;;;;;;;1.24;68.10;98409.75;5044066;28;20048;-83
2022/02/21 05:34:15;;;;;;;7.00;2.38;;;;;;;0.89;67.66;98340.38;5020463;28;20040;-83
2022/02/21 05:36:41;;;;;;;6.53;2.67;;;;;;;1.17;67.85;98361.06;5052504;28;20041;-83
2022/02/21 05:39:09;;;;;;;5.68;2.53;;;;;;;1.24;67.59;98355.94;5029947;28;20044;-82
2022/02/21 05:41:38;;;;;;;8.55;2.72;;;;;;;1.18;67.03;98332.00;5060122;28;20044;-82
2022/02/21 05:44:06;;;;;;;5.65;2.42;;;;;;;1.22;67.28;98332.00;5069768;28;20021;-80
2022/02/21 05:46:37;;;;;;;5.20;2.50;;;;;;;1.27;67.30;98326.06;5018094;28;20044;-81
2022/02/21 05:49:06;;;;;;;5.40;2.60;;;;;;;1.70;67.61;98381.81;5048863;28;20048;-81
2022/02/21 05:51:34;;;;;;;7.15;2.67;;;;;;;1.94;67.12;98419.53;5059447;28;20040;-81
2022/02/21 05:54:03;;;;;;;5.63;2.83;;;;;;;1.53;66.70;98348.41;5054587;28;20041;-81
2022/02/21 05:56:42;;;;;;;7.05;2.72;;;;;;;1.75;67.17;98379.28;5052521;28;20037;-82
2022/02/21 05:59:11;;;;;;;6.05;3.22;;;;;;;1.75;67.55;98381.84;5038993;28;20044;-83
2022/02/21 06:01:40;;;;;;;8.27;2.78;;;;;;;1.84;67.03;98378.44;5030195;28;20057;-82
2022/02/21 06:04:08;;;;;;;5.10;3.13;;;;;;;2.04;66.68;98420.44;5048297;28;20055;-82
2022/02/21 06:06:41;;;;;;;6.93;2.85;;;;;;;2.10;67.10;98412.72;5034879;28;20453;-83
2022/02/21 06:09:07;;;;;;;4.50;2.80;;;;;;;2.16;67.08;98423.88;5030068;28;20080;-82
2022/02/21 06:11:37;;;;;;;6.63;2.97;;;;;;;1.70;66.53;98340.75;5015259;28;20055;-81
2022/02/21 06:14:05;;;;;;;4.60;2.88;;;;;;;2.23;67.01;98415.34;5047954;28;20073;-82
2022/02/21 06:16:39;;;;;;;5.03;2.80;;;;;;;2.12;66.83;98397.34;5021673;28;20134;-82
2022/02/21 06:19:11;;;;;;;7.00;3.20;;;;;;;2.22;67.54;98413.63;5014469;28;20137;-80
2022/02/21 06:21:41;;;;;;;7.32;3.20;;;;;;;2.07;66.88;98399.03;5029249;28;20028;-81
2022/02/21 06:24:15;;;;;;;4.40;2.90;;;;;;;2.16;66.95;98423.88;5030103;28;20075;-82
2022/02/21 06:26:44;;;;;;;8.05;3.40;;;;;;;1.69;67.46;98357.00;5049049;28;20071;-83
2022/02/21 06:29:24;;;;;;;5.68;3.38;;;;;;;1.90;67.10;98393.84;5048225;28;20144;-81
2022/02/21 06:31:54;;;;;;;6.18;3.25;;;;;;;1.49;67.37;98321.03;5023459;28;20041;-83
2022/02/21 06:34:39;;;;;;;5.40;2.97;;;;;;;1.43;67.27;98295.38;5024806;28;20044;-82
2022/02/21 06:37:05;;;;;;;5.75;3.40;;;;;;;1.86;67.50;98357.06;5015822;28;20045;-77
2022/02/21 06:39:30;;;;;;;8.95;3.65;;;;;;;2.22;66.89;98421.34;5050991;28;20052;-82
2022/02/21 06:42:02;;;;;;;7.28;3.83;;;;;;;2.32;66.67;98424.78;5044574;28;20047;-81
2022/02/21 06:44:28;;;;;;;6.43;3.80;;;;;;;2.33;67.08;98423.94;5021224;28;21299;-84
2022/02/21 06:46:57;;;;;;;4.43;3.25;;;;;;;2.14;66.72;98389.66;5049062;28;20045;-81
2022/02/21 06:49:45;;;;;;;4.97;3.17;;;;;;;2.10;67.05;98381.09;5032299;28;20049;-81
2022/02/21 06:52:13;;;;;;;6.35;3.63;;;;;;;2.34;67.13;98394.84;5042834;28;20128;-80
2022/02/21 06:55:01;;;;;;;5.50;3.13;;;;;;;2.37;66.26;98375.16;5001252;28;20037;-84
2022/02/21 06:57:29;;;;;;;5.60;3.28;;;;;;;1.99;66.74;98293.81;5050567;28;20558;-82
2022/02/21 06:59:55;;;;;;;5.35;3.10;;;;;;;2.81;66.73;98411.13;5032729;28;20050;-82
2022/02/21 07:02:23;;;;;;;7.00;3.30;;;;;;;2.49;66.59;98356.34;5047806;28;20048;-82
2022/02/21 07:04:52;;;;;;;4.65;3.40;;;;;;;2.70;66.20;98409.44;5050793;28;20099;-82
2022/02/21 07:07:19;;;;;;;6.95;3.38;;;;;;;2.43;65.96;98373.44;5042437;28;20049;-82
2022/02/21 07:09:50;;;;;;;5.05;3.10;;;;;;;2.62;66.69;98413.69;5062369;28;20067;-81
2022/02/21 07:12:19;;;;;;;5.25;3.15;;;;;;;2.48;65.50;98400.00;5056477;28;20041;-80
2022/02/21 07:14:56;;;;;;;7.80;3.50;;;;;;;2.61;66.40;98403.44;5035867;28;20041;-80
2022/02/21 07:17:43;;;;;;;4.28;2.92;;;;;;;2.90;65.76;98421.44;5030647;28;20083;-83
2022/02/21 07:20:15;;;;;;;4.43;3.10;;;;;;;2.74;65.65;98383.75;5010974;28;20061;-80
2022/02/21 07:22:43;;;;;;;6.15;3.03;;;;;;;2.96;65.87;98415.44;5057835;28;20036;-81
2022/02/21 07:25:11;;;;;;;6.57;3.25;;;;;;;2.87;65.90;98372.59;5031296;28;20139;-80
2022/02/21 07:27:44;;;;;;;4.60;3.15;;;;;;;2.86;66.08;98343.50;5012606;28;20108;-80
2022/02/21 07:30:13;;;;;;;4.78;2.85;;;;;;;3.38;65.12;98417.97;5034403;28;20037;-81
2022/02/21 07:32:42;;;;;;;7.45;3.70;;;;;;;3.06;65.20;98360.59;5049102;28;20055;-82
2022/02/21 07:35:09;;;;;;;9.07;3.50;;;;;;;3.19;65.02;98373.44;5031284;28;20047;-80
2022/02/21 07:37:41;;;;;;;5.90;3.58;;;;;;;3.50;65.33;98401.66;5015052;28;21009;-79
2022/02/21 07:40:09;;;;;;;6.93;3.17;;;;;;;3.24;64.65;98333.16;5050642;28;20141;-82
2022/02/21 07:42:42;;;;;;;7.50;3.30;;;;;;;3.65;64.80;98369.84;5013288;28;20646;-79
2022/02/21 07:45:09;;;;;;;6.68;3.58;;;;;;;3.55;64.49;98354.47;5047764;28;20076;-79
2022/02/21 07:47:45;;;;;;;4.28;3.30;;;;;;;3.26;63.87;98298.84;5031852;28;20052;-81
2022/02/21 07:50:35;;;;;;;6.00;3.05;;;;;;;4.00;63.74;98402.31;5029498;28;20037;-80
2022/02/21 07:53:03;;;;;;;6.97;3.20;;;;;;;3.96;63.65;98391.19;5035145;28;20472;-81
2022/02/21 07:55:30;;;;;;;5.43;3.45;;;;;;;3.92;63.75;98374.06;5012676;28;20056;-81
2022/02/21 07:58:03;;;;;;;5.85;3.58;;;;;;;4.04;63.43;98378.28;5030112;28;20032;-81
2022/02/21 08:00:32;;;;;;;7.40;3.92;;;;;;;3.96;63.15;98362.88;5032115;28;20210;-84
2022/02/21 08:02:58;;;;;;;7.30;3.30;;;;;;;3.75;62.31;98341.50;5040322;28;20502;-81
2022/02/21 08:05:27;;;;;;;7.90;3.65;;;;;;;4.00;62.89;98404.91;5030196;28;20037;-83
2022/02/21 08:07:53;;;;;;;6.50;3.53;;;;;;;3.64;62.49;98357.88;5023020;28;20045;-82
2022/02/21 08:10:19;;;;;;;7.38;3.60;;;;;;;4.06;62.85;98417.75;5034048;28;20032;-82
2022/02/21 08:12:45;;;;;;;6.65;3.90;;;;;;;4.04;62.90;98433.19;5032696;28;20094;-81
2022/02/21 08:15:15;;;;;;;9.00;4.32;;;;;;;3.99;62.89;98437.50;5055130;28;20037;-81
2022/02/21 08:17:43;;;;;;;5.88;3.25;;;;;;;3.50;61.98;98375.94;5027556;28;20502;-80
2022/02/21 08:20:16;;;;;;;5.57;3.55;;;;;;;3.86;62.26;98444.41;5032403;28;20529;-85
2022/02/21 08:22:46;;;;;;;6.10;3.50;;;;;;;3.75;62.61;98398.13;5029167;28;20037;-85
2022/02/21 08:25:13;;;;;;;6.38;3.83;;;;;;;4.14;63.25;98446.88;5014736;28;20115;-85
2022/02/21 08:27:41;;;;;;;4.40;3.40;;;;;;;4.23;62.14;98443.41;5037054;28;20053;-85
2022/02/21 08:30:12;;;;;;;5.10;3.30;;;;;;;4.04;61.91;98386.00;5020571;28;20048;-84
2022/02/21 08:32:38;;;;;;;8.00;3.85;;;;;;;4.28;61.82;98430.53;5015541;28;20037;-84
2022/02/21 08:35:07;;;;;;;9.48;3.58;;;;;;;4.02;61.50;98382.59;5018379;28;20049;-84
2022/02/21 08:37:33;;;;;;;7.85;3.53;;;;;;;4.04;62.10;98373.97;5014300;28;20037;-84
2022/02/21 08:40:08;;;;;;;4.90;3.40;;;;;;;4.29;61.39;98439.97;5027041;28;20049;-83
2022/02/21 08:42:34;;;;;;;5.45;3.70;;;;;;;4.29;61.43;98429.66;5017151;28;20069;-84
2022/02/21 08:45:00;;;;;;;7.30;3.70;;;;;;;4.13;60.61;98401.38;5051667;28;20037;-86
2022/02/21 08:47:26;;;;;;;8.18;3.88;;;;;;;4.12;61.70;98438.31;5030023;28;20021;-83
2022/02/21 08:49:52;;;;;;;4.05;3.20;;;;;;;3.89;61.58;98431.53;5034050;28;20041;-84
2022/02/21 08:52:24;;;;;;;4.85;3.50;;;;;;;3.81;61.79;98414.41;5011347;28;20144;-84
2022/02/21 08:54:52;;;;;;;10.50;5.57;;;;;;;4.00;62.02;98444.34;5011154;28;20041;-84
2022/02/21 08:57:21;;;;;;;6.75;3.50;;;;;;;3.80;62.21;98399.81;5019537;28;20049;-84
2022/02/21 08:59:47;;;;;;;8.38;3.72;;;;;;;4.09;62.19;98435.72;5000775;28;20136;-86
2022/02/21 09:02:13;;;;;;;7.78;3.90;;;;;;;3.80;62.09;98372.38;5015921;28;20156;-86
2022/02/21 09:04:42;;;;;;;11.52;4.32;;;;;;;4.04;62.03;98404.88;5039440;28;20132;-83
2022/02/21 09:07:18;;;;;;;6.30;3.55;;;;;;;3.97;61.60;98379.16;5013245;28;20049;-88
2022/02/21 09:09:46;;;;;;;6.10;3.50;;;;;;;3.96;61.60;98374.88;5017263;28;20072;-84
2022/02/21 09:12:12;;;;;;;8.80;3.67;;;;;;;4.16;62.10;98405.69;5018513;28;20088;-85
2022/02/21 09:14:50;;;;;;;6.82;3.42;;;;;;;3.68;61.35;98333.84;5019367;28;20049;-86
2022/02/21 09:17:41;;;;;;;7.00;3.55;;;;;;;3.78;61.86;98353.53;5031097;28;20692;-89
2022/02/21 09:20:08;;;;;;;9.20;4.38;;;;;;;3.63;61.48;98336.44;5006791;28;20044;-84
2022/02/21 09:22:34;;;;;;;6.90;3.58;;;;;;;4.04;61.48;98406.59;5037467;28;21036;-83
2022/02/21 09:25:00;;;;;;;7.15;3.55;;;;;;;4.29;61.37;98427.09;4995132;28;20056;-85
2022/02/21 09:27:40;;;;;;;6.40;4.30;;;;;;;4.43;61.62;98443.31;5017961;28;20041;-84
2022/02/21 09:30:59;;;;;;;6.22;3.88;;;;;;;4.55;61.76;98444.97;4995787;28;20041;-84
2022/02/21 09:33:30;;;;;;;5.65;3.60;;;;;;;4.42;60.78;98421.00;4942316;28;20051;-85
2022/02/21 09:35:56;;;;;;;6.50;3.50;;;;;;;4.60;61.27;98458.69;5000798;28;20066;-85
2022/02/21 09:38:22;;;;;;;6.15;3.58;;;;;;;4.11;60.55;98376.53;5017291;28;20624;-85
2022/02/21 09:41:14;;;;;;;11.00;3.65;;;;;;;4.26;60.09;98411.66;5013878;28;20073;-83
2022/02/21 09:43:50;;;;;;;;;;;;;;;4.32;61.25;98442.50;5032482;28;20037;-85
2022/02/21 09:46:18;;;;;;;7.63;3.80;;;;;;;4.22;61.14;98447.72;5035598;28;20454;-84
2022/02/21 09:48:50;;;;;;;7.30;3.83;;;;;;;4.25;61.12;98440.84;4999617;28;20049;-83
2022/02/21 09:51:16;;;;;;;7.75;5.07;;;;;;;4.20;61.05;98453.72;4998372;28;20560;-84
2022/02/21 09:53:43;;;;;;;7.00;3.70;;;;;;;4.23;60.86;98448.53;5014314;28;20037;-82
2022/02/21 09:56:11;;;;;;;9.75;4.05;;;;;;;4.03;60.89;98408.31;5031482;28;20036;-83
2022/02/21 09:58:37;;;;;;;9.77;4.43;;;;;;;4.03;61.17;98433.22;5031090;28;20444;-85
2022/02/21 10:01:03;;;;;;;8.40;4.20;;;;;;;4.22;61.23;98445.13;5014327;28;20084;-82
2022/02/21 10:03:38;;;;;;;6.28;3.92;;;;;;;4.28;60.93;98449.38;5012841;28;20049;-85
2022/02/21 10:06:17;;;;;;;9.45;3.53;;;;;;;4.31;61.17;98427.91;5035534;28;20049;-84
2022/02/21 10:08:57;;;;;;;7.65;4.20;;;;;;;4.37;60.91;98428.75;5015511;28;20045;-83
2022/02/21 10:11:50;;;;;;;8.30;4.10;;;;;;;4.37;60.55;98402.13;5031640;28;20490;-84
2022/02/21 10:14:28;;;;;;;8.82;4.15;;;;;;;3.92;60.67;98322.56;4999483;28;20057;-84
2022/02/21 10:17:05;;;;;;;9.65;4.40;;;;;;;3.90;60.15;98311.44;5022333;28;20017;-83
2022/02/21 10:19:38;;;;;;;6.68;4.22;;;;;;;4.61;60.56;98426.00;5021703;28;20591;-85
2022/02/21 10:22:17;;;;;;;7.65;3.97;;;;;;;4.35;60.09;98402.16;5028789;28;20486;-85
2022/02/21 10:24:47;;;;;;;8.63;4.78;;;;;;;4.37;60.16;98392.69;5028897;28;20045;-84
2022/02/21 10:27:23;;;;;;;10.65;4.32;;;;;;;4.79;61.08;98415.56;4995648;28;20046;-82
2022/02/21 10:30:22;;;;;;;7.13;4.22;;;;;;;5.08;60.70;98418.78;5030242;28;20025;-83
2022/02/21 10:33:19;;;;;;;7.85;3.75;;;;;;;4.63;60.11;98303.19;4990760;28;20054;-84
2022/02/21 10:40:17;;;;;;;8.80;4.07;;;;;;;5.20;59.46;98353.34;5004030;28;20057;-84
2022/02/21 10:43:01;;;;;;;8.15;3.90;;;;;;;5.57;59.22;98402.81;4969709;28;20086;-84
2022/02/21 10:45:33;;;;;;;7.85;4.22;;;;;;;5.06;59.11;98315.66;4926253;29;20133;-84
2022/02/21 10:48:20;;;;;;;7.60;4.05;;;;;;;5.62;58.68;98395.06;4907711;29;20050;-84
2022/02/21 10:50:53;;;;;;;7.43;4.00;;;;;;;4.89;58.25;98291.78;4892730;29;20064;-84
2022/02/21 10:53:35;;;;;;;8.70;5.18;;;;;;;5.29;58.39;98342.94;4907601;29;20051;-81
2022/02/21 10:56:19;;;;;;;7.22;3.80;;;;;;;5.37;59.48;98354.03;4894486;29;20052;-85
2022/02/21 10:58:58;;;;;;;;;;;;;;;;;;;;;
2022/02/21 11:01:35;;;;;;;7.22;4.80;;;;;;;5.60;58.51;98358.09;4922956;28;20090;-85
2022/02/21 11:04:44;;;;;;;7.30;3.90;;;;;;;6.09;58.34;98397.09;4960214;28;20037;-84
2022/02/21 11:07:15;;;;;;;6.97;3.90;;;;;;;6.21;57.66;98386.59;4970203;28;20042;-83
2022/02/21 11:10:11;;;;;;;5.97;3.20;;;;;;;5.64;56.59;98296.94;4968429;28;20101;-84
2022/02/21 11:12:43;;;;;;;7.60;3.25;;;;;;;5.75;56.45;98335.53;4924265;28;20566;-82
2022/02/21 11:15:09;;;;;;;6.97;3.63;;;;;;;5.47;56.91;98333.28;4966643;28;20102;-83
2022/02/21 11:20:51;;;;;;;6.15;4.00;;;;;;;5.25;56.55;98343.84;5023969;28;20045;-83
2022/02/21 11:23:18;;;;;;;7.25;3.80;;;;;;;5.18;57.21;98349.94;5008697;28;20076;-85
2022/02/21 11:25:54;;;;;;;5.95;3.40;;;;;;;5.10;56.56;98340.56;5019045;28;20046;-83
2022/02/21 11:28:34;;;;;;;8.63;3.70;;;;;;;5.40;57.21;98390.13;4994480;28;20041;-83
2022/02/21 11:31:03;;;;;;;8.05;3.97;;;;;;;5.33;57.35;98366.97;5009718;28;20052;-84
2022/02/21 11:33:30;;;;;;;5.88;3.50;;;;;;;5.27;57.04;98334.34;5033842;28;20397;-85
2022/02/21 11:36:05;;;;;;;7.18;3.80;;;;;;;4.85;56.76;98285.81;5036094;28;20049;-83
2022/02/21 11:38:33;;;;;;;6.22;3.38;;;;;;;4.83;56.76;98285.81;5029601;28;20049;-81
2022/02/21 11:41:35;;;;;;;5.28;3.53;;;;;;;5.56;55.97;98388.22;5027747;28;20041;-86
2022/02/21 11:44:45;;;;;;;7.20;4.57;;;;;;;5.68;57.09;98400.13;5011363;28;20041;-83
2022/02/21 11:47:41;;;;;;;11.32;4.25;;;;;;;5.66;56.80;98399.28;5008868;28;20045;-82
2022/02/21 11:50:19;;;;;;;6.70;3.90;;;;;;;5.66;56.79;98399.28;4990179;28;20053;-87
2022/02/21 11:52:55;;;;;;;8.30;4.03;;;;;;;5.21;56.49;98322.38;4998842;28;20160;-85
2022/02/21 11:55:32;;;;;;;6.95;4.30;;;;;;;5.67;56.40;98395.00;4995306;28;20041;-82
2022/02/21 11:57:59;;;;;;;7.13;3.78;;;;;;;5.32;55.73;98334.28;5014865;28;20056;-85
2022/02/21 12:00:31;;;;;;;6.65;3.83;;;;;;;5.73;56.80;98390.59;5007019;28;20494;-85
2022/02/21 12:03:25;;;;;;;7.03;4.30;;;;;;;5.82;56.82;98386.22;5011759;28;20454;-81
2022/02/21 12:05:57;;;;;;;7.35;3.58;;;;;;;5.87;56.04;98385.28;5028603;28;20037;-83